Time;durP1;ratioP1;P1;durP2;ratioP2;P2;SDS_P1;SDS_P2;PMS_P1;PMS_P2;Temp;Humidity;BMP_temperature;BMP_pressure;BME280_temperature;BME280_humidity;BME280_pressure;Samples;Min_cycle;Max_cycle;Signal;HPM_P1;HPM_P2
2023/01/02 00:01:16;;;;;;;10.58;5.58;;;;;;;8.68;78.41;102782.77;1897835;75;21088;-49
2023/01/02 00:03:44;;;;;;;10.55;4.90;;;;;;;8.69;78.55;102791.09;1886008;75;21506;-47
2023/01/02 00:06:13;;;;;;;11.83;5.90;;;;;;;8.70;78.49;102802.02;1865959;77;21055;-51
2023/01/02 00:08:42;;;;;;;12.07;7.22;;;;;;;8.70;78.44;102803.33;1862611;77;21091;-46
2023/01/02 00:11:10;;;;;;;10.65;4.55;;;;;;;8.69;78.44;102806.41;1859554;77;21181;-48
2023/01/02 00:13:40;;;;;;;8.70;5.17;;;;;;;8.71;78.50;102812.98;1859737;77;21051;-47
2023/01/02 00:16:09;;;;;;;11.80;7.58;;;;;;;8.71;78.45;102809.48;1859708;77;21075;-51
2023/01/02 00:18:37;;;;;;;10.55;6.35;;;;;;;8.71;78.59;102797.22;1859604;77;21095;-51
2023/01/02 00:21:07;;;;;;;17.32;7.00;;;;;;;8.71;78.58;102810.80;1859688;77;21042;-52
2023/01/02 00:23:36;;;;;;;14.25;6.95;;;;;;;8.70;78.59;102805.96;1859718;77;21158;-48
2023/01/02 00:26:06;;;;;;;12.75;6.78;;;;;;;8.67;78.64;102802.03;1859465;77;21518;-51
2023/01/02 00:28:37;;;;;;;9.95;5.25;;;;;;;8.66;78.76;102805.52;1859549;77;21059;-51
2023/01/02 00:31:07;;;;;;;17.27;10.40;;;;;;;8.64;78.71;102808.59;1858585;75;21150;-50
2023/01/02 00:33:37;;;;;;;12.63;6.87;;;;;;;8.61;78.95;102796.34;1858226;77;21048;-46
2023/01/02 00:36:10;;;;;;;11.75;7.28;;;;;;;8.63;79.27;102798.94;1858155;77;21060;-49
2023/01/02 00:38:40;;;;;;;14.87;7.62;;;;;;;8.67;79.38;102790.22;1858227;77;21060;-50
2023/01/02 00:41:09;;;;;;;11.63;6.15;;;;;;;8.67;79.38;102798.09;1858164;77;21487;-49
2023/01/02 00:43:38;;;;;;;8.80;5.10;;;;;;;8.68;79.49;102790.20;1858128;77;21046;-49
2023/01/02 00:46:07;;;;;;;19.45;9.80;;;;;;;8.70;79.58;102795.45;1858139;77;21529;-49
2023/01/02 00:48:36;;;;;;;13.08;7.72;;;;;;;8.71;79.77;102791.97;1862475;76;21052;-48
2023/01/02 00:51:04;;;;;;;12.85;6.30;;;;;;;8.71;79.72;102791.97;1891653;76;21115;-48
2023/01/02 00:53:33;;;;;;;13.55;6.55;;;;;;;8.70;79.74;102778.38;1891575;76;21095;-51
2023/01/02 00:56:02;;;;;;;18.20;9.35;;;;;;;8.69;79.95;102767.45;1891663;76;21084;-47
2023/01/02 00:58:30;;;;;;;16.62;7.58;;;;;;;8.69;80.10;102760.44;1891701;76;21118;-51
2023/01/02 01:00:59;;;;;;;13.93;8.20;;;;;;;8.69;79.99;102762.20;1891659;76;21126;-48
2023/01/02 01:03:28;;;;;;;13.93;7.97;;;;;;;8.66;80.18;102764.81;1891693;76;21585;-50
2023/01/02 01:05:56;;;;;;;11.73;6.08;;;;;;;8.63;80.21;102754.30;1891763;76;21044;-50
2023/01/02 01:08:25;;;;;;;15.55;7.83;;;;;;;8.59;80.18;102753.86;1892216;75;21047;-47
2023/01/02 01:10:53;;;;;;;15.95;8.25;;;;;;;8.57;80.42;102752.54;1897890;75;21597;-50
2023/01/02 01:13:22;;;;;;;14.85;8.20;;;;;;;8.57;80.36;102752.98;1897795;75;21212;-49
2023/01/02 01:15:51;;;;;;;11.38;6.80;;;;;;;8.55;80.44;102750.80;1897802;75;21125;-52
2023/01/02 01:18:19;;;;;;;13.50;7.67;;;;;;;8.55;80.55;102756.05;1897915;75;21126;-47
2023/01/02 01:20:48;;;;;;;16.07;9.05;;;;;;;8.53;80.40;102748.61;1897908;75;21129;-48
2023/01/02 01:23:17;;;;;;;11.25;5.50;;;;;;;8.50;80.51;102745.11;1897823;75;21075;-50
2023/01/02 01:25:45;;;;;;;13.03;7.80;;;;;;;8.52;80.48;102761.28;1897870;75;21047;-52
2023/01/02 01:28:14;;;;;;;11.88;6.78;;;;;;;8.52;80.38;102754.30;1897831;75;21028;-50
2023/01/02 01:30:43;;;;;;;14.03;7.80;;;;;;;8.55;80.34;102749.48;1897798;75;21213;-51
2023/01/02 01:33:11;;;;;;;11.60;6.17;;;;;;;8.54;80.27;102751.66;1897824;75;21052;-52
2023/01/02 01:35:41;;;;;;;12.37;7.55;;;;;;;8.55;80.27;102749.03;1897891;75;21519;-49
2023/01/02 01:38:09;;;;;;;13.70;8.40;;;;;;;8.57;80.29;102756.92;1897896;75;21129;-48
2023/01/02 01:40:39;;;;;;;13.68;7.10;;;;;;;8.57;80.34;102742.03;1897856;75;21047;-50
2023/01/02 01:43:15;;;;;;;13.43;7.58;;;;;;;8.59;80.47;102753.86;1897789;75;21506;-50
2023/01/02 01:45:44;;;;;;;8.63;4.42;;;;;;;8.61;80.38;102739.88;1897874;75;21528;-49
2023/01/02 01:48:16;;;;;;;10.40;6.72;;;;;;;8.63;80.32;102751.67;1897881;75;21051;-49
2023/01/02 01:50:45;;;;;;;12.37;6.25;;;;;;;8.63;80.33;102757.82;1834774;78;21137;-51
2023/01/02 01:53:20;;;;;;;10.18;5.67;;;;;;;8.64;80.37;102762.63;1834878;78;21607;-51
2023/01/02 01:55:55;;;;;;;10.08;6.00;;;;;;;8.65;80.57;102752.55;1834851;78;21070;-50
2023/01/02 01:58:27;;;;;;;15.50;8.95;;;;;;;8.66;80.68;102755.63;1834668;78;21134;-49
2023/01/02 02:00:56;;;;;;;11.80;6.53;;;;;;;8.66;80.69;102760.43;1833692;77;21063;-48
2023/01/02 02:03:28;;;;;;;11.40;6.00;;;;;;;8.68;80.68;102771.80;1834739;78;21502;-49
2023/01/02 02:05:59;;;;;;;12.63;6.47;;;;;;;8.70;80.65;102756.05;1834630;78;21054;-50
2023/01/02 02:08:42;;;;;;;9.25;5.10;;;;;;;8.69;80.57;102735.94;1834895;78;21075;-49
2023/01/02 02:11:13;;;;;;;12.43;5.80;;;;;;;8.72;80.58;102758.69;1834843;78;21186;-47
2023/01/02 02:13:42;;;;;;;12.28;6.10;;;;;;;8.72;80.55;102749.50;1834855;78;21059;-49
2023/01/02 02:16:16;;;;;;;14.90;6.70;;;;;;;8.73;80.49;102756.07;1834807;78;21055;-50
2023/01/02 02:19:17;;;;;;;11.78;6.67;;;;;;;8.76;80.35;102749.52;1837363;78;21125;-47
2023/01/02 02:22:13;;;;;;;12.00;6.15;;;;;;;8.77;80.24;102748.63;1837431;78;21046;-49
2023/01/02 02:24:56;;;;;;;9.68;5.03;;;;;;;8.75;80.12;102754.77;1773580;81;21115;-47
2023/01/02 02:27:30;;;;;;;11.60;6.42;;;;;;;8.75;80.02;102758.26;1836970;78;21056;-48
2023/01/02 02:30:17;;;;;;;11.38;6.03;;;;;;;8.74;79.85;102749.92;1834794;78;21090;-50
2023/01/02 02:33:00;;;;;;;10.58;5.92;;;;;;;8.73;79.77;102754.76;1834760;78;21563;-51
2023/01/02 02:35:42;;;;;;;12.90;7.35;;;;;;;8.70;79.68;102761.31;1834312;78;21632;-50
2023/01/02 02:38:49;;;;;;;10.82;5.75;;;;;;;8.68;79.65;102758.67;1834473;78;21066;-50
2023/01/02 02:41:36;;;;;;;11.57;5.30;;;;;;;8.70;79.70;102761.31;1782076;80;21647;-47
2023/01/02 02:44:32;;;;;;;11.95;6.58;;;;;;;8.71;79.57;102765.70;1782026;80;21561;-48
2023/01/02 02:47:06;;;;;;;10.65;6.25;;;;;;;8.72;79.54;102745.56;1824394;78;21059;-48
2023/01/02 02:49:40;;;;;;;12.20;7.20;;;;;;;8.74;79.39;102764.81;1868447;75;21083;-49
2023/01/02 02:52:11;;;;;;;10.80;6.53;;;;;;;8.73;79.29;102766.58;1897938;75;21048;-46
2023/01/02 02:54:55;;;;;;;10.60;5.50;;;;;;;8.76;79.16;102773.16;1897932;75;21125;-45
2023/01/02 02:57:25;;;;;;;12.95;3.85;;;;;;;8.76;79.13;102775.78;1852809;75;21126;-47
2023/01/02 02:59:54;;;;;;;14.23;7.42;;;;;;;8.76;79.16;102767.91;1897980;75;21105;-48
2023/01/02 03:02:23;;;;;;;16.67;7.20;;;;;;;8.78;79.13;102766.56;1897810;75;21487;-48
2023/01/02 03:04:54;;;;;;;12.75;6.87;;;;;;;8.75;79.04;102766.14;1898168;75;21059;-50
2023/01/02 03:07:47;;;;;;;9.85;5.10;;;;;;;8.73;79.09;102763.95;1897945;75;21044;-46
2023/01/02 03:10:24;;;;;;;10.15;6.33;;;;;;;8.71;79.16;102765.70;1897995;75;21153;-50
2023/01/02 03:13:15;;;;;;;11.65;6.80;;;;;;;8.70;79.14;102765.25;1897097;75;21284;-48
2023/01/02 03:16:01;;;;;;;13.53;7.12;;;;;;;8.72;79.33;102762.63;1897550;75;21158;-50
2023/01/02 03:18:33;;;;;;;9.83;5.47;;;;;;;8.77;79.43;102764.38;1897072;75;21118;-47
2023/01/02 03:21:14;;;;;;;15.13;7.47;;;;;;;8.79;79.30;102763.95;1897044;75;21056;-48
2023/01/02 03:23:45;;;;;;;8.18;4.75;;;;;;;8.81;79.38;102756.07;1898036;75;21059;-49
2023/01/02 03:26:20;;;;;;;12.13;6.08;;;;;;;8.83;79.32;102760.89;1897871;75;21036;-49
2023/01/02 03:28:51;;;;;;;9.80;5.45;;;;;;;8.83;79.23;102765.69;1897719;75;21048;-49
2023/01/02 03:31:22;;;;;;;12.55;7.28;;;;;;;8.82;79.11;102756.08;1884552;75;21043;-47
2023/01/02 03:33:54;;;;;;;9.05;4.83;;;;;;;8.84;79.06;102762.20;1880803;75;21034;-47
2023/01/02 03:36:28;;;;;;;12.53;8.23;;;;;;;8.83;78.91;102755.19;1883828;75;21517;-47
2023/01/02 03:39:02;;;;;;;10.30;6.03;;;;;;;8.86;78.75;102758.27;1878686;75;21113;-49
2023/01/02 03:41:37;;;;;;;10.50;6.10;;;;;;;8.93;78.51;102756.50;1867748;75;21043;-48
2023/01/02 03:44:09;;;;;;;11.88;5.87;;;;;;;8.96;78.32;102749.95;1866029;77;21694;-45
2023/01/02 03:46:52;;;;;;;6.85;4.15;;;;;;;8.97;78.15;102752.58;1866026;77;21051;-47
2023/01/02 03:49:27;;;;;;;;;;;;;;;8.98;78.07;102756.06;1881942;75;21032;-49
2023/01/02 03:51:52;;;;;;;10.25;4.92;;;;;;;8.97;77.97;102759.59;1884301;75;20104;-50
2023/01/02 03:54:22;;;;;;;13.32;7.10;;;;;;;8.96;77.87;102767.02;1881875;75;21006;-50
2023/01/02 03:57:06;;;;;;;8.58;5.70;;;;;;;8.95;77.85;102771.86;1869466;75;21134;-48
2023/01/02 03:59:58;;;;;;;13.20;6.33;;;;;;;8.94;77.80;102767.46;1864246;77;21490;-49
2023/01/02 04:02:32;;;;;;;12.90;5.45;;;;;;;8.94;77.79;102776.66;1864120;77;21171;-50
2023/01/02 04:05:04;;;;;;;5.75;3.52;;;;;;;8.96;77.72;102769.20;1864294;77;21593;-47
2023/01/02 04:07:38;;;;;;;9.80;5.65;;;;;;;8.98;77.62;102787.60;1862353;77;21088;-49
2023/01/02 04:10:10;;;;;;;7.55;3.80;;;;;;;9.00;77.53;102796.36;1864197;77;21119;-51
2023/01/02 04:12:41;;;;;;;12.13;6.08;;;;;;;9.00;77.49;102814.34;1864229;77;21616;-50
2023/01/02 04:15:12;;;;;;;8.83;5.28;;;;;;;8.99;77.55;102807.76;1864070;77;21161;-46
2023/01/02 04:17:44;;;;;;;9.83;3.80;;;;;;;9.01;77.57;102817.83;1864192;77;21125;-48
2023/01/02 04:20:20;;;;;;;10.38;5.92;;;;;;;9.03;77.52;102818.26;1862308;75;21063;-49
2023/01/02 04:22:51;;;;;;;13.55;6.17;;;;;;;9.03;77.43;102818.70;1870948;75;21544;-50
2023/01/02 04:25:21;;;;;;;8.23;5.42;;;;;;;9.03;77.48;102822.65;1866021;77;21125;-46
2023/01/02 04:27:53;;;;;;;8.38;5.65;;;;;;;9.03;77.50;102826.14;1865873;77;21047;-47
2023/01/02 04:30:21;;;;;;;13.20;7.12;;;;;;;9.05;77.54;102819.58;1865503;77;21575;-50
2023/01/02 04:32:51;;;;;;;9.98;5.62;;;;;;;9.07;77.56;102823.98;1860963;77;21012;-50
2023/01/02 04:35:23;;;;;;;9.60;6.08;;;;;;;9.10;77.54;102811.27;1860938;77;21091;-49
2023/01/02 04:37:51;;;;;;;9.73;5.28;;;;;;;9.14;77.52;102818.27;1860918;77;21090;-48
2023/01/02 04:40:25;;;;;;;11.85;7.10;;;;;;;9.17;77.36;102835.36;1860719;77;21000;-47
2023/01/02 04:42:54;;;;;;;11.80;5.67;;;;;;;9.19;77.34;102836.23;1860837;77;21067;-48
2023/01/02 04:45:23;;;;;;;8.00;4.67;;;;;;;9.17;77.31;102837.99;1844402;77;21502;-48
2023/01/02 04:47:52;;;;;;;12.50;6.60;;;;;;;9.16;77.30;102845.42;1844664;77;21180;-51
2023/01/02 04:50:21;;;;;;;11.93;5.42;;;;;;;9.13;77.29;102855.95;1888632;75;21043;-48
2023/01/02 04:52:49;;;;;;;10.45;5.92;;;;;;;9.11;77.38;102851.14;1891298;75;21027;-46
2023/01/02 04:55:18;;;;;;;10.88;6.17;;;;;;;9.11;77.39;102853.77;1865952;77;21130;-50
2023/01/02 04:57:46;;;;;;;16.02;7.35;;;;;;;9.11;77.47;102849.83;1865923;77;21172;-47
2023/01/02 05:00:16;;;;;;;12.88;5.95;;;;;;;9.11;77.47;102855.50;1865940;77;21157;-47
2023/01/02 05:02:44;;;;;;;8.63;4.83;;;;;;;9.10;77.47;102851.13;1866091;77;21122;-48
2023/01/02 05:05:13;;;;;;;12.70;6.45;;;;;;;9.08;77.45;102858.56;1865875;77;21125;-48
2023/01/02 05:07:42;;;;;;;9.33;5.65;;;;;;;9.08;77.61;102868.21;1865868;77;21137;-50
2023/01/02 05:10:11;;;;;;;10.68;4.90;;;;;;;9.10;77.62;102874.34;1865941;77;21067;-50
2023/01/02 05:12:40;;;;;;;13.53;8.13;;;;;;;9.11;77.63;102865.59;1865860;77;21059;-52
2023/01/02 05:15:10;;;;;;;12.18;7.85;;;;;;;9.12;77.65;102861.20;1865967;77;21125;-46
2023/01/02 05:17:40;;;;;;;9.70;5.17;;;;;;;9.13;77.65;102862.53;1865822;77;21059;-48
2023/01/02 05:20:13;;;;;;;11.90;6.08;;;;;;;9.15;77.72;102871.70;1865899;77;21145;-46
2023/01/02 05:25:34;;;;;;;11.18;6.75;;;;;;;9.19;77.61;102867.78;1865936;77;21300;-50
2023/01/02 05:28:04;;;;;;;13.18;7.17;;;;;;;9.23;77.44;102876.09;1866016;77;21043;-49
2023/01/02 05:30:32;;;;;;;10.45;7.12;;;;;;;9.27;77.36;102875.22;1865906;77;21125;-47
2023/01/02 05:33:01;;;;;;;13.30;8.28;;;;;;;9.45;77.06;102869.55;1866126;77;21075;-51
2023/01/02 05:35:30;;;;;;;9.68;6.58;;;;;;;9.71;76.46;102869.96;1866050;77;21125;-49
2023/01/02 05:37:58;;;;;;;11.95;7.08;;;;;;;9.85;75.89;102857.66;1866029;77;21019;-51
2023/01/02 05:40:27;;;;;;;10.68;5.47;;;;;;;9.81;75.65;102860.74;1866024;77;21094;-46
2023/01/02 05:42:56;;;;;;;12.50;7.00;;;;;;;10.00;75.48;102861.56;1865816;77;21234;-47
2023/01/02 05:45:25;;;;;;;12.18;6.30;;;;;;;10.32;74.49;102864.55;1865946;77;21129;-50
2023/01/02 05:47:54;;;;;;;11.48;6.37;;;;;;;10.46;73.60;102879.00;1865911;77;21075;-50
2023/01/02 05:50:23;;;;;;;10.75;6.03;;;;;;;10.45;73.32;102858.80;1893636;75;21047;-49
2023/01/02 05:52:52;;;;;;;11.60;6.80;;;;;;;10.21;73.63;102857.11;1897862;75;21095;-49
2023/01/02 05:55:20;;;;;;;13.40;8.38;;;;;;;9.99;74.23;102854.53;1897787;75;21063;-50
2023/01/02 05:57:49;;;;;;;11.12;6.42;;;;;;;9.86;74.75;102863.34;1897829;75;21040;-50
2023/01/02 06:00:18;;;;;;;11.28;6.60;;;;;;;9.99;74.86;102867.69;1897939;75;21200;-95
2023/01/02 06:02:47;;;;;;;10.25;6.28;;;;;;;10.21;74.21;102872.45;1897981;75;21056;-49
2023/01/02 06:05:15;;;;;;;12.60;5.85;;;;;;;10.32;73.96;102886.94;1897876;75;21117;-50
2023/01/02 06:07:44;;;;;;;8.28;5.33;;;;;;;10.66;72.92;102881.54;1897659;75;21133;-50
2023/01/02 06:10:13;;;;;;;11.68;7.45;;;;;;;10.57;72.75;102887.72;1897862;75;21047;-50
2023/01/02 06:12:41;;;;;;;10.48;5.45;;;;;;;10.47;72.94;102876.78;1894964;75;21056;-49
2023/01/02 06:15:11;;;;;;;10.30;6.17;;;;;;;11.02;72.12;102880.87;1890076;76;21048;-50
2023/01/02 06:17:39;;;;;;;9.10;5.75;;;;;;;11.86;70.42;102885.90;1860763;75;21081;-52
2023/01/02 06:20:09;;;;;;;11.15;6.28;;;;;;;12.60;68.39;102893.41;1897773;75;21081;-52
2023/01/02 06:22:37;;;;;;;9.00;5.67;;;;;;;13.22;66.95;102889.45;1875058;75;21056;-53
2023/01/02 06:25:07;;;;;;;9.73;5.22;;;;;;;13.68;64.76;102876.37;1859675;77;21096;-53
2023/01/02 06:27:36;;;;;;;9.60;5.12;;;;;;;14.04;64.14;102879.21;1859576;77;21056;-49
2023/01/02 06:30:06;;;;;;;8.68;5.72;;;;;;;14.25;62.45;102862.00;1859537;77;21034;-50
2023/01/02 06:32:34;;;;;;;9.13;5.80;;;;;;;14.50;61.35;102876.08;1859660;77;21138;-51
2023/01/02 06:35:03;;;;;;;9.65;5.55;;;;;;;14.72;61.16;102871.21;1886256;75;21109;-56
2023/01/02 06:37:31;;;;;;;8.10;5.00;;;;;;;14.95;60.03;102889.70;1897807;75;21046;-54
2023/01/02 06:40:00;;;;;;;10.05;6.42;;;;;;;15.06;58.99;102876.59;1897806;75;21053;-56
2023/01/02 06:42:29;;;;;;;6.50;4.03;;;;;;;15.08;58.25;102888.95;1897779;75;21093;-56
2023/01/02 06:44:57;;;;;;;8.38;4.20;;;;;;;15.06;58.56;102896.48;1897824;75;21034;-50
2023/01/02 06:47:26;;;;;;;9.53;5.62;;;;;;;15.06;58.14;102897.81;1897719;75;21104;-52
2023/01/02 06:49:55;;;;;;;8.48;5.22;;;;;;;15.22;57.71;102873.58;1872249;75;21183;-56
2023/01/02 06:52:24;;;;;;;4.97;3.52;;;;;;;15.25;56.95;102876.14;1859691;77;21109;-56
2023/01/02 06:54:53;;;;;;;9.73;5.60;;;;;;;15.39;56.83;102881.13;1859455;77;21068;-56
2023/01/02 06:57:22;;;;;;;11.97;4.67;;;;;;;15.55;56.29;102882.94;1859544;77;21523;-56
2023/01/02 06:59:51;;;;;;;8.15;4.78;;;;;;;15.50;56.04;102875.08;1859498;77;21170;-56
2023/01/02 07:02:19;;;;;;;6.20;4.20;;;;;;;15.70;55.65;102877.22;1859751;77;21140;-56
2023/01/02 07:04:48;;;;;;;9.98;5.83;;;;;;;15.56;55.74;102883.34;1859465;77;21071;-57
2023/01/02 07:07:17;;;;;;;7.28;4.37;;;;;;;15.74;55.20;102872.27;1859576;77;21064;-57
2023/01/02 07:09:45;;;;;;;5.10;3.62;;;;;;;16.09;54.91;102890.35;1859508;77;21063;-57
2023/01/02 07:12:14;;;;;;;7.85;5.12;;;;;;;16.23;54.35;102881.11;1896753;75;21050;-58
2023/01/02 07:14:43;;;;;;;7.12;4.33;;;;;;;16.51;53.62;102872.75;1879091;75;21085;-53
2023/01/02 07:17:11;;;;;;;9.18;5.12;;;;;;;16.72;52.43;102885.84;1865984;77;21131;-59
2023/01/02 07:19:40;;;;;;;5.42;4.08;;;;;;;17.09;52.14;102890.50;1842645;77;21123;-59
2023/01/02 07:22:09;;;;;;;7.40;3.95;;;;;;;17.37;51.34;102893.11;1835421;77;21112;-58
2023/01/02 07:24:37;;;;;;;9.50;5.10;;;;;;;17.53;51.30;102888.16;1847381;77;21147;-57
2023/01/02 07:27:06;;;;;;;6.22;4.33;;;;;;;17.93;50.21;102880.13;1861832;77;21078;-58
2023/01/02 07:29:35;;;;;;;6.50;4.00;;;;;;;17.82;49.29;102882.28;1863603;77;21615;-59
2023/01/02 07:32:04;;;;;;;8.28;4.85;;;;;;;17.69;49.65;102864.05;1865845;77;21046;-58
2023/01/02 07:34:33;;;;;;;4.15;2.77;;;;;;;17.96;49.41;102863.15;1842240;77;21069;-58
2023/01/02 07:37:02;;;;;;;7.08;3.80;;;;;;;18.39;48.85;102850.42;1835449;77;21061;-58
2023/01/02 07:39:31;;;;;;;7.25;4.87;;;;;;;18.79;48.26;102832.81;1856056;77;21093;-58
2023/01/02 07:41:59;;;;;;;7.65;4.42;;;;;;;19.00;46.86;102847.61;1863763;77;21163;-58
2023/01/02 07:44:28;;;;;;;7.47;4.85;;;;;;;18.99;47.19;102841.85;1866001;77;21085;-57
2023/01/02 07:46:57;;;;;;;9.20;5.17;;;;;;;19.05;46.63;102855.83;1865996;77;21116;-58
2023/01/02 07:49:26;;;;;;;9.95;3.98;;;;;;;19.02;46.60;102855.95;1852073;77;21073;-56
2023/01/02 07:51:54;;;;;;;4.97;3.20;;;;;;;18.88;46.65;102844.48;1841092;77;21093;-56
2023/01/02 07:54:23;;;;;;;6.20;3.85;;;;;;;18.86;46.39;102825.00;1885534;75;21157;-56
2023/01/02 07:56:53;;;;;;;8.70;4.87;;;;;;;18.71;45.78;102840.27;1893234;75;21082;-57
2023/01/02 07:59:22;;;;;;;6.90;3.65;;;;;;;18.80;45.72;102815.02;1866005;77;21433;-56
2023/01/02 08:01:50;;;;;;;7.60;4.42;;;;;;;18.85;45.10;102833.95;1865937;77;21061;-57
2023/01/02 08:04:19;;;;;;;5.33;3.10;;;;;;;18.94;44.74;102803.80;1865990;77;21100;-56
2023/01/02 08:06:48;;;;;;;6.12;3.33;;;;;;;19.18;44.74;102830.83;1877931;75;21136;-57
2023/01/02 08:09:17;;;;;;;4.80;3.67;;;;;;;19.13;44.45;102801.25;1878473;75;21112;-57
2023/01/02 08:11:46;;;;;;;6.17;4.22;;;;;;;18.79;44.92;102794.59;1867618;75;21480;-56
2023/01/02 08:14:14;;;;;;;8.70;3.95;;;;;;;19.09;44.39;102799.17;1833936;78;21208;-57
2023/01/02 08:16:44;;;;;;;8.55;3.58;;;;;;;19.26;43.82;102820.67;1833983;78;21114;-56
2023/01/02 08:19:13;;;;;;;7.40;4.05;;;;;;;19.65;43.71;102797.62;1833912;78;21613;-56
2023/01/02 08:21:42;;;;;;;6.85;3.55;;;;;;;20.05;43.23;102792.69;1833956;78;21047;-59
2023/01/02 08:24:10;;;;;;;5.42;3.40;;;;;;;20.12;42.07;102790.61;1834002;78;21134;-58
2023/01/02 08:26:40;;;;;;;7.90;5.25;;;;;;;19.89;41.84;102793.00;1833895;78;21593;-59
2023/01/02 08:29:08;;;;;;;6.72;4.25;;;;;;;19.86;41.80;102773.08;1833944;78;21138;-58
2023/01/02 08:31:37;;;;;;;4.65;3.15;;;;;;;19.96;41.52;102737.45;1833984;78;21074;-60
2023/01/02 08:34:06;;;;;;;10.08;3.85;;;;;;;19.68;41.67;102776.97;1848140;77;21240;-59
2023/01/02 08:36:34;;;;;;;7.95;4.40;;;;;;;19.54;42.20;102764.70;1863370;77;21133;-59
2023/01/02 08:39:03;;;;;;;5.65;4.05;;;;;;;19.55;41.92;102773.13;1855671;77;21142;-59
2023/01/02 08:41:33;;;;;;;8.68;4.08;;;;;;;19.67;41.79;102768.55;1834004;78;21148;-60
2023/01/02 08:44:02;;;;;;;7.37;3.98;;;;;;;19.83;41.20;102735.81;1835933;77;21145;-61
2023/01/02 08:46:35;;;;;;;6.30;4.33;;;;;;;19.89;41.37;102764.07;1833862;78;21079;-61
2023/01/02 08:49:04;;;;;;;8.98;4.65;;;;;;;19.81;40.90;102765.29;1854355;75;21450;-61
2023/01/02 08:51:32;;;;;;;9.05;4.58;;;;;;;19.56;41.39;102733.42;1896951;75;21048;-61
2023/01/02 08:54:01;;;;;;;5.08;3.70;;;;;;;19.59;41.02;102735.97;1882227;75;21117;-61
2023/01/02 08:56:32;;;;;;;7.90;3.85;;;;;;;19.66;41.13;102740.09;1875309;75;21098;-61
2023/01/02 08:59:04;;;;;;;6.60;3.98;;;;;;;19.85;40.79;102720.09;1871508;75;21133;-61
2023/01/02 09:01:33;;;;;;;6.62;3.77;;;;;;;20.04;40.40;102752.17;1865097;77;21204;-59
2023/01/02 09:04:03;;;;;;;8.35;3.37;;;;;;;20.05;40.24;102731.66;1868503;75;21201;-58
2023/01/02 09:06:33;;;;;;;7.00;3.55;;;;;;;20.01;40.17;102713.56;1867625;75;21162;-60
2023/01/02 09:09:04;;;;;;;6.15;3.35;;;;;;;19.82;40.27;102712.69;1866783;75;21110;-59
2023/01/02 09:11:36;;;;;;;6.67;4.10;;;;;;;20.11;40.45;102718.47;1863253;77;21205;-59
2023/01/02 09:14:05;;;;;;;6.17;3.52;;;;;;;20.16;40.13;102705.72;1862561;76;21084;-60
2023/01/02 09:16:34;;;;;;;5.75;3.35;;;;;;;20.11;39.70;102699.75;1850800;75;21055;-61
2023/01/02 09:19:04;;;;;;;8.15;4.00;;;;;;;20.19;39.84;102704.24;1828105;78;21161;-61
2023/01/02 09:21:33;;;;;;;5.85;4.05;;;;;;;20.32;39.91;102704.03;1834263;75;21482;-61
2023/01/02 09:24:03;;;;;;;7.28;4.10;;;;;;;20.61;39.17;102695.07;1869625;75;21657;-61
2023/01/02 09:26:32;;;;;;;7.35;4.40;;;;;;;20.68;38.55;102688.47;1854056;76;21526;-61
2023/01/02 09:29:00;;;;;;;5.50;3.08;;;;;;;20.61;38.72;102701.28;1857163;77;21091;-61
2023/01/02 09:31:29;;;;;;;6.40;3.62;;;;;;;20.98;38.53;102683.81;1857132;77;21114;-61
2023/01/02 09:33:58;;;;;;;6.72;3.98;;;;;;;20.96;38.08;102699.09;1857137;77;21213;-61
2023/01/02 09:36:27;;;;;;;5.00;2.87;;;;;;;20.99;38.21;102688.23;1857027;77;21079;-62
2023/01/02 09:38:57;;;;;;;5.83;4.80;;;;;;;21.37;38.06;102700.05;1835747;75;21138;-60
2023/01/02 09:41:35;;;;;;;6.30;4.62;;;;;;;21.09;37.24;102673.39;1858649;77;21576;-61
2023/01/02 09:44:33;;;;;;;5.15;3.77;;;;;;;20.63;38.15;102673.96;1858553;77;21125;-62
2023/01/02 09:47:13;;;;;;;5.70;3.05;;;;;;;20.60;38.15;102643.78;1863881;77;21788;-62
2023/01/02 09:50:03;;;;;;;5.17;2.83;;;;;;;20.15;39.01;102697.31;1864788;76;21017;-62
2023/01/02 09:52:38;;;;;;;6.40;2.27;;;;;;;20.37;38.55;102683.28;1890664;76;21113;-60
2023/01/02 09:55:18;;;;;;;7.47;3.52;;;;;;;20.31;38.86;102696.97;1862990;76;21600;-61
2023/01/02 09:57:59;;;;;;;7.20;3.98;;;;;;;20.19;39.09;102694.88;1858072;77;21254;-61
2023/01/02 10:00:34;;;;;;;4.72;2.92;;;;;;;20.67;38.95;102674.67;1858111;77;21517;-61
2023/01/02 10:03:18;;;;;;;6.08;3.47;;;;;;;20.93;37.93;102672.47;1858676;77;21064;-61
2023/01/02 10:06:05;;;;;;;7.28;5.03;;;;;;;20.98;38.16;102664.58;1888205;75;21035;-61
2023/01/02 10:08:36;;;;;;;7.78;4.60;;;;;;;20.98;37.62;102678.45;1879930;75;21530;-62
2023/01/02 10:11:28;;;;;;;4.42;2.83;;;;;;;20.58;38.42;102675.11;1828044;78;21181;-62
2023/01/02 10:14:08;;;;;;;8.88;4.17;;;;;;;20.53;38.46;102663.31;1827872;78;21549;-62
2023/01/02 10:16:40;;;;;;;5.47;4.10;;;;;;;20.33;38.70;102661.64;1809126;78;21119;-59
2023/01/02 10:19:11;;;;;;;6.75;4.45;;;;;;;20.08;39.17;102647.74;1835743;77;21023;-59
2023/01/02 10:24:39;;;;;;;9.30;4.37;;;;;;;19.53;40.25;102656.11;1858925;76;21386;-60
2023/01/02 10:27:10;;;;;;;5.65;3.25;;;;;;;19.96;39.75;102651.41;1858397;76;21050;-59
2023/01/02 10:29:42;;;;;;;6.40;4.67;;;;;;;20.21;39.31;102656.89;1860305;76;21116;-61
2023/01/02 10:32:17;;;;;;;4.90;3.12;;;;;;;20.15;39.18;102635.80;1857126;76;21236;-61
2023/01/02 10:35:00;;;;;;;6.05;2.70;;;;;;;19.91;39.76;102646.75;1857084;76;21121;-61
2023/01/02 10:37:29;;;;;;;8.33;3.80;;;;;;;19.42;41.03;102627.22;1858523;75;21104;-61
2023/01/02 10:39:59;;;;;;;6.17;3.25;;;;;;;19.20;41.06;102652.70;1870525;76;21157;-61
2023/01/02 10:42:29;;;;;;;5.20;3.20;;;;;;;19.64;40.30;102643.11;1879573;76;21070;-61
2023/01/02 10:44:58;;;;;;;5.78;4.00;;;;;;;20.04;39.79;102647.88;1879665;75;21050;-60
2023/01/02 10:47:38;;;;;;;4.50;3.02;;;;;;;20.29;39.33;102672.11;1879485;76;21576;-60
2023/01/02 10:50:12;;;;;;;8.75;4.47;;;;;;;20.37;39.28;102655.66;1865384;76;21179;-61
2023/01/02 10:52:47;;;;;;;7.70;5.15;;;;;;;20.16;39.45;102628.16;1852779;77;21132;-60
2023/01/02 10:55:33;;;;;;;7.20;4.42;;;;;;;19.86;39.93;102629.62;1858885;76;21203;-61
2023/01/02 10:58:05;;;;;;;7.15;3.80;;;;;;;19.84;40.24;102649.33;1858891;76;21101;-61
2023/01/02 11:00:36;;;;;;;7.17;3.77;;;;;;;19.92;40.05;102632.45;1860196;76;21183;-60
2023/01/02 11:03:13;;;;;;;6.55;3.83;;;;;;;19.75;40.19;102617.21;1858475;77;21117;-61
2023/01/02 11:05:48;;;;;;;7.65;3.87;;;;;;;19.32;40.79;102637.05;1858924;77;21563;-61
2023/01/02 11:08:20;;;;;;;9.20;5.17;;;;;;;18.93;41.63;102633.91;1855962;77;21117;-61
2023/01/02 11:10:50;;;;;;;6.85;3.20;;;;;;;18.87;42.10;102637.25;1860251;76;21597;-61
2023/01/02 11:13:21;;;;;;;5.90;4.17;;;;;;;18.93;42.11;102609.89;1858883;77;21215;-60
2023/01/02 11:15:59;;;;;;;6.50;4.15;;;;;;;19.11;41.80;102626.41;1860824;76;21145;-59
2023/01/02 11:18:34;;;;;;;4.85;3.35;;;;;;;19.33;41.32;102570.66;1872728;76;21042;-59
2023/01/02 11:21:06;;;;;;;8.33;4.70;;;;;;;19.32;41.41;102630.37;1890739;76;21187;-60
2023/01/02 11:23:37;;;;;;;6.28;2.58;;;;;;;18.57;42.62;102628.72;1857766;76;21128;-59
2023/01/02 11:26:12;;;;;;;5.53;3.67;;;;;;;18.37;42.95;102635.37;1851880;77;21043;-60
2023/01/02 11:28:41;;;;;;;6.65;3.62;;;;;;;18.25;43.16;102624.76;1852008;76;21463;-59
2023/01/02 11:31:13;;;;;;;6.87;3.77;;;;;;;18.30;43.26;102641.44;1851692;77;21004;-61
2023/01/02 11:33:44;;;;;;;5.90;4.37;;;;;;;18.54;43.08;102613.34;1852090;77;21024;-60
2023/01/02 11:36:17;;;;;;;5.05;3.95;;;;;;;18.52;42.89;102618.73;1851776;77;21431;-60
2023/01/02 11:38:49;;;;;;;7.50;4.62;;;;;;;18.54;43.03;102632.02;1845408;76;21107;-60
2023/01/02 11:44:33;;;;;;;9.18;5.15;;;;;;;18.42;43.15;102622.23;1827150;78;21075;-59
2023/01/02 11:47:05;;;;;;;6.35;3.70;;;;;;;18.21;43.52;102615.16;1827046;78;21506;-59
2023/01/02 11:49:37;;;;;;;5.75;4.22;;;;;;;17.99;43.96;102638.69;1843982;77;21108;-61
2023/01/02 11:52:08;;;;;;;6.78;4.08;;;;;;;18.12;43.94;102634.58;1858834;77;21116;-63
2023/01/02 11:54:48;;;;;;;5.70;3.52;;;;;;;17.89;44.23;102634.64;1850819;77;21122;-65
2023/01/02 11:57:20;;;;;;;7.12;3.85;;;;;;;17.69;44.72;102628.75;1784560;78;21557;-65